createdAt,value
2023-03-03T00:01:51.161Z,98407.69
2023-03-03T00:04:20.339Z,98411.16
2023-03-03T00:06:49.520Z,98395.13
2023-03-03T00:09:18.849Z,98367.94
2023-03-03T00:11:49.442Z,98396.13
2023-03-03T00:14:30.617Z,98392.78
2023-03-03T00:17:02.444Z,98354.56
2023-03-03T00:19:46.940Z,98391.22
2023-03-03T00:22:24.636Z,98382.78
2023-03-03T00:24:53.785Z,98380.31
2023-03-03T00:27:29.895Z,98378.66
2023-03-03T00:30:02.782Z,98375.28
2023-03-03T00:32:46.560Z,98354.94
2023-03-03T00:35:32.408Z,98374.47
2023-03-03T00:38:03.060Z,98370.25
2023-03-03T00:40:37.493Z,98352.41
2023-03-03T00:43:21.358Z,98350.75
2023-03-03T00:45:54.628Z,98352.50
2023-03-03T00:48:27.478Z,98349.09
2023-03-03T00:50:58.443Z,98339.81
2023-03-03T00:53:29.148Z,98331.34
2023-03-03T00:56:04.339Z,98331.38
2023-03-03T00:58:33.490Z,98330.50
2023-03-03T01:01:04.559Z,98325.41
2023-03-03T01:03:43.450Z,98318.59
2023-03-03T01:06:13.863Z,98313.47
2023-03-03T01:08:43.042Z,98311.84
2023-03-03T01:11:17.743Z,98313.53
2023-03-03T01:13:49.607Z,98281.97
2023-03-03T01:16:21.712Z,98312.63
2023-03-03T01:18:52.911Z,98299.03
2023-03-03T01:21:22.107Z,98291.41
2023-03-03T01:23:51.185Z,98299.94
2023-03-03T01:26:25.478Z,98302.53
2023-03-03T01:28:54.587Z,98311.91
2023-03-03T01:31:25.824Z,98297.50
2023-03-03T01:33:55.119Z,98296.66
2023-03-03T01:36:28.461Z,98287.31
2023-03-03T01:38:57.754Z,98300.09
2023-03-03T01:41:29.841Z,98301.81
2023-03-03T01:43:59.027Z,98270.34
2023-03-03T01:46:50.966Z,98293.31
2023-03-03T01:49:24.634Z,98283.94
2023-03-03T01:51:59.801Z,98289.88
2023-03-03T01:54:31.952Z,98289.00
2023-03-03T01:57:12.355Z,98288.13
2023-03-03T01:59:45.978Z,98275.34
2023-03-03T02:02:18.274Z,98255.00
2023-03-03T02:04:47.845Z,98270.28
2023-03-03T02:07:18.557Z,98276.28
2023-03-03T02:09:56.395Z,98283.09
2023-03-03T02:12:37.175Z,98276.31
2023-03-03T02:15:28.830Z,98274.63
2023-03-03T02:18:04.099Z,98283.97
2023-03-03T02:20:55.315Z,98273.81
2023-03-03T02:23:28.896Z,98269.56
2023-03-03T02:26:08.969Z,98253.50
2023-03-03T02:28:40.199Z,98257.75
2023-03-03T02:31:15.738Z,98250.97
2023-03-03T02:33:47.786Z,98244.25
2023-03-03T02:36:18.785Z,98242.56
2023-03-03T02:38:55.213Z,98241.75
2023-03-03T02:41:34.953Z,98231.56
2023-03-03T02:44:10.091Z,98234.09
2023-03-03T02:46:42.543Z,98228.16
2023-03-03T02:49:19.133Z,98217.97
2023-03-03T02:51:54.106Z,98216.34
2023-03-03T02:54:25.537Z,98219.69
2023-03-03T02:56:56.721Z,98233.19
2023-03-03T02:59:26.403Z,98218.75
2023-03-03T03:01:55.640Z,98228.03
2023-03-03T03:04:32.405Z,98218.66
2023-03-03T03:07:02.094Z,98212.63
2023-03-03T03:09:33.540Z,98219.41
2023-03-03T03:12:04.876Z,98203.25
2023-03-03T03:14:36.135Z,98199.81
2023-03-03T03:17:07.425Z,98210.94
2023-03-03T03:19:42.503Z,98211.00
2023-03-03T03:22:11.657Z,98215.22
2023-03-03T03:24:40.877Z,98189.78
2023-03-03T03:27:13.757Z,98199.19
2023-03-03T03:29:48.421Z,98189.81
2023-03-03T03:32:18.373Z,98215.34
2023-03-03T03:34:47.666Z,98213.66
2023-03-03T03:37:17.433Z,98199.22
2023-03-03T03:39:48.336Z,98203.47
2023-03-03T03:42:19.548Z,98209.41
2023-03-03T03:44:50.707Z,98199.22
2023-03-03T03:47:20.325Z,98196.66
2023-03-03T03:49:49.726Z,98205.97
2023-03-03T03:52:19.785Z,98207.69
2023-03-03T03:54:49.300Z,98183.06
2023-03-03T03:59:55.679Z,98171.09
2023-03-03T04:02:26.455Z,98208.53
2023-03-03T04:05:03.179Z,98200.13
2023-03-03T04:07:32.875Z,98179.69
2023-03-03T04:10:02.115Z,98191.59
2023-03-03T04:15:18.002Z,98180.56
2023-03-03T04:17:47.295Z,98182.31
2023-03-03T04:20:18.395Z,98173.81
2023-03-03T04:22:48.726Z,98170.44
2023-03-03T04:25:19.540Z,98178.91
2023-03-03T04:27:52.464Z,98166.22
2023-03-03T04:30:25.812Z,98155.13
2023-03-03T04:33:00.029Z,98178.91
2023-03-03T04:35:30.446Z,98165.34
2023-03-03T04:38:02.891Z,98172.97
2023-03-03T04:40:32.542Z,98167.91
2023-03-03T04:43:05.838Z,98167.06
2023-03-03T04:45:35.885Z,98170.41
2023-03-03T04:48:05.738Z,98152.59
2023-03-03T04:50:41.404Z,98172.97
2023-03-03T04:53:10.641Z,98154.28
2023-03-03T04:55:40.694Z,98169.59
2023-03-03T04:58:12.587Z,98171.34
2023-03-03T05:00:42.710Z,98157.78
2023-03-03T05:03:14.546Z,98160.31
2023-03-03T05:05:45.031Z,98145.88
2023-03-03T05:08:15.611Z,98162.84
2023-03-03T05:10:44.835Z,98177.28
2023-03-03T05:13:21.030Z,98180.72
2023-03-03T05:15:54.849Z,98164.59
2023-03-03T05:18:24.901Z,98124.66
2023-03-03T05:20:55.178Z,98169.69
2023-03-03T05:23:24.665Z,98179.00
2023-03-03T05:25:54.172Z,98180.72
2023-03-03T05:28:30.701Z,98181.59
2023-03-03T05:31:05.207Z,98170.59
2023-03-03T05:33:34.490Z,98175.66
2023-03-03T05:36:03.634Z,98179.06
2023-03-03T05:38:37.822Z,98162.97
2023-03-03T05:41:07.292Z,98179.94
2023-03-03T05:43:43.380Z,98173.16
2023-03-03T05:46:13.517Z,98173.16
2023-03-03T05:48:42.675Z,98157.91
2023-03-03T05:51:12.133Z,98181.66
2023-03-03T05:53:47.812Z,98168.06
2023-03-03T05:56:23.425Z,98174.03
2023-03-03T05:58:54.705Z,98179.97
2023-03-03T06:01:29.331Z,98175.75
2023-03-03T06:03:58.649Z,98168.09
2023-03-03T06:06:27.965Z,98181.69
2023-03-03T06:08:57.520Z,98161.31
2023-03-03T06:11:26.979Z,98181.78
2023-03-03T06:13:58.746Z,98183.53
2023-03-03T06:16:28.370Z,98189.47
2023-03-03T06:18:57.450Z,98190.31
2023-03-03T06:21:26.870Z,98178.44
2023-03-03T06:23:55.979Z,98176.75
2023-03-03T06:26:25.253Z,98190.34
2023-03-03T06:28:55.090Z,98183.56
2023-03-03T06:31:26.570Z,98186.94
2023-03-03T06:33:56.201Z,98179.34
2023-03-03T06:36:26.938Z,98189.50
2023-03-03T06:38:56.174Z,98185.25
2023-03-03T06:41:25.308Z,98179.34
2023-03-03T06:43:54.512Z,98159.81
2023-03-03T06:46:25.724Z,98193.78
2023-03-03T06:48:54.976Z,98181.06
2023-03-03T06:51:33.066Z,98166.66
2023-03-03T06:54:12.938Z,98181.94
2023-03-03T06:56:43.305Z,98181.09
2023-03-03T06:59:15.706Z,98180.25
2023-03-03T07:01:50.584Z,98186.19
2023-03-03T07:04:28.376Z,98185.34
2023-03-03T07:07:18.365Z,98185.34
2023-03-03T07:09:49.597Z,98176.88
2023-03-03T07:12:21.808Z,98193.84
2023-03-03T07:14:55.267Z,98198.94
2023-03-03T07:17:27.689Z,98185.31
2023-03-03T07:19:57.064Z,98200.59
2023-03-03T07:22:30.648Z,98168.34
2023-03-03T07:25:03.651Z,98176.03
2023-03-03T07:27:39.846Z,98181.09
2023-03-03T07:30:23.953Z,98193.84
2023-03-03T07:32:56.292Z,98193.88
2023-03-03T07:35:39.648Z,98198.09
2023-03-03T07:38:24.189Z,98189.59
2023-03-03T07:40:55.300Z,98191.31
2023-03-03T07:43:41.783Z,98192.16
2023-03-03T07:46:27.485Z,98205.72
2023-03-03T07:49:00.580Z,98198.94
2023-03-03T07:51:31.783Z,98205.72
2023-03-03T07:54:20.165Z,98209.97
2023-03-03T07:56:49.868Z,98188.75
2023-03-03T07:59:24.354Z,98196.38
2023-03-03T08:01:56.045Z,98201.47
2023-03-03T08:04:31.684Z,98215.88
2023-03-03T08:07:02.215Z,98210.78
2023-03-03T08:09:50.560Z,98209.06
2023-03-03T08:12:33.832Z,98216.75
2023-03-03T08:15:23.917Z,98182.81
2023-03-03T08:17:55.767Z,98224.41
2023-03-03T08:20:51.269Z,98196.41
2023-03-03T08:23:21.941Z,98210.84
2023-03-03T08:25:57.105Z,98206.56
2023-03-03T08:28:26.429Z,98214.22
2023-03-03T08:31:08.863Z,98215.06
2023-03-03T08:33:48.400Z,98204.84
2023-03-03T08:36:19.490Z,98209.00
2023-03-03T08:38:54.442Z,98221.72
2023-03-03T08:41:25.856Z,98203.78
2023-03-03T08:44:01.253Z,98197.88
2023-03-03T08:46:30.575Z,98206.38
2023-03-03T08:48:59.731Z,98213.16
2023-03-03T08:51:33.361Z,98222.50
2023-03-03T08:54:02.627Z,98215.56
2023-03-03T08:56:36.821Z,98229.19
2023-03-03T08:59:06.107Z,98223.25
2023-03-03T09:01:36.643Z,98216.63
2023-03-03T09:04:05.995Z,98191.25
2023-03-03T09:06:37.097Z,98235.44
2023-03-03T09:09:06.573Z,98206.56
2023-03-03T09:11:35.889Z,98225.22
2023-03-03T09:14:17.428Z,98225.09
2023-03-03T09:16:51.954Z,98230.91
2023-03-03T09:19:26.802Z,98222.44
2023-03-03T09:22:00.947Z,98232.47
2023-03-03T09:24:38.633Z,98220.31
2023-03-03T09:27:25.404Z,98220.19
2023-03-03T09:29:55.168Z,98218.28
2023-03-03T09:32:33.207Z,98227.63
2023-03-03T09:35:23.400Z,98187.84
2023-03-03T09:37:55.334Z,98233.06
2023-03-03T09:40:53.161Z,98231.28
2023-03-03T09:43:30.271Z,98229.44
2023-03-03T09:46:14.915Z,98229.34
2023-03-03T09:48:54.885Z,98224.97
2023-03-03T09:51:44.206Z,98213.13
2023-03-03T09:54:33.968Z,98223.41
2023-03-03T09:57:11.400Z,98220.88
2023-03-03T09:59:57.572Z,98221.78
2023-03-03T10:02:54.535Z,98213.19
2023-03-03T10:05:35.260Z,98213.81
2023-03-03T10:08:30.570Z,98215.28
2023-03-03T10:11:15.058Z,98217.03
2023-03-03T10:14:08.389Z,98210.28
2023-03-03T10:16:58.162Z,98215.59
2023-03-03T10:19:46.282Z,98208.16
2023-03-03T10:22:26.869Z,98197.31
2023-03-03T10:25:20.590Z,98207.72
2023-03-03T10:28:07.933Z,98202.78
2023-03-03T10:31:04.096Z,98218.97
2023-03-03T10:33:45.958Z,98227.59
2023-03-03T10:36:35.097Z,98218.28
2023-03-03T10:39:18.539Z,98225.97
2023-03-03T10:45:09.053Z,98216.50
2023-03-03T10:48:01.163Z,98230.03
2023-03-03T10:50:40.598Z,98233.44
2023-03-03T10:53:24.797Z,98224.00
2023-03-03T10:56:15.500Z,98230.78
2023-03-03T10:58:55.634Z,98224.66
2023-03-03T11:01:40.006Z,98219.41
2023-03-03T11:07:41.175Z,98063.38
2023-03-03T11:10:45.007Z,98225.50
2023-03-03T11:13:24.708Z,98231.50
2023-03-03T11:16:07.776Z,98204.34
2023-03-03T11:18:55.702Z,98211.28
2023-03-03T11:21:31.858Z,98228.38
2023-03-03T11:24:31.943Z,98230.13
2023-03-03T11:27:27.575Z,98225.91
2023-03-03T11:30:20.560Z,98231.06
2023-03-03T11:32:55.653Z,98246.34
2023-03-03T11:35:31.295Z,98233.41
2023-03-03T11:38:12.408Z,98200.13
2023-03-03T11:40:49.671Z,98248.69
2023-03-03T11:43:36.110Z,98220.63
2023-03-03T11:46:09.856Z,98246.88
2023-03-03T11:48:45.707Z,98208.59
2023-03-03T11:51:22.874Z,98231.41
2023-03-03T11:54:03.019Z,98238.19
2023-03-03T11:56:40.252Z,98225.41
2023-03-03T11:59:41.664Z,98210.22
2023-03-03T12:02:25.282Z,98252.06
2023-03-03T12:04:57.744Z,98249.63
2023-03-03T12:07:44.771Z,98257.31
2023-03-03T12:10:26.499Z,98230.13
2023-03-03T12:13:04.660Z,98247.06
2023-03-03T12:15:42.714Z,98203.66
2023-03-03T12:18:44.175Z,98230.00
2023-03-03T12:21:33.320Z,98237.72
2023-03-03T12:24:18.327Z,98249.66
2023-03-03T12:26:55.237Z,98241.16
2023-03-03T12:29:30.728Z,98254.69
2023-03-03T12:32:09.565Z,98206.91
2023-03-03T12:34:52.053Z,98215.53
2023-03-03T12:37:30.361Z,98237.75
2023-03-03T12:40:11.337Z,98250.59
2023-03-03T12:42:57.162Z,98241.31
2023-03-03T12:53:20.573Z,98239.56
2023-03-03T12:56:00.016Z,98243.00
2023-03-03T12:58:40.729Z,98239.59
2023-03-03T13:01:21.016Z,98229.31
2023-03-03T13:04:05.257Z,98220.00
2023-03-03T13:06:39.567Z,98241.25
2023-03-03T13:09:29.016Z,98239.59
2023-03-03T13:12:16.358Z,98248.09
2023-03-03T13:14:52.050Z,98250.66
2023-03-03T13:17:27.744Z,98221.75
2023-03-03T13:20:01.483Z,98244.69
2023-03-03T13:22:45.420Z,98250.66
2023-03-03T13:25:46.341Z,98248.09
2023-03-03T13:28:28.331Z,98254.88
2023-03-03T13:31:00.568Z,98249.75
2023-03-03T13:33:31.902Z,98242.13
2023-03-03T13:36:05.253Z,98241.25
2023-03-03T13:38:39.701Z,98252.31
2023-03-03T13:41:19.309Z,98250.66
2023-03-03T13:43:51.500Z,98237.94
2023-03-03T13:46:38.643Z,98241.34
2023-03-03T13:49:40.062Z,98244.75
2023-03-03T13:52:12.379Z,98245.63
2023-03-03T13:55:03.053Z,98235.38
2023-03-03T13:57:46.172Z,98238.81
2023-03-03T14:00:25.382Z,98238.81
2023-03-03T14:03:10.556Z,98245.63
2023-03-03T14:05:46.059Z,98243.09
2023-03-03T14:08:45.900Z,98231.19
2023-03-03T14:11:25.462Z,98245.63
2023-03-03T14:16:53.041Z,98241.38
2023-03-03T14:19:28.151Z,98254.16
2023-03-03T14:22:14.048Z,98243.09
2023-03-03T14:25:02.265Z,98252.44
2023-03-03T14:27:39.765Z,98255.84
2023-03-03T14:30:38.570Z,98238.84
2023-03-03T14:33:21.156Z,98235.44
2023-03-03T14:36:08.403Z,98248.22
2023-03-03T14:38:45.042Z,98254.16
2023-03-03T14:41:18.738Z,98261.81
2023-03-03T14:43:59.321Z,98260.09
2023-03-03T14:46:46.519Z,98260.09
2023-03-03T14:49:18.341Z,98261.81
2023-03-03T14:51:49.435Z,98258.41
2023-03-03T14:54:28.178Z,98260.94
2023-03-03T14:57:05.499Z,98261.78
2023-03-03T14:59:34.961Z,98258.41
2023-03-03T15:02:31.592Z,98268.59
2023-03-03T15:05:20.235Z,98276.22
2023-03-03T15:07:53.189Z,98276.22
2023-03-03T15:10:37.946Z,98274.50
2023-03-03T15:13:30.276Z,98243.94
2023-03-03T15:16:14.095Z,98259.22
2023-03-03T15:19:08.743Z,98285.56
2023-03-03T15:21:43.489Z,98288.94
2023-03-03T15:27:01.912Z,98279.59
2023-03-03T15:29:35.193Z,98287.22
2023-03-03T15:32:10.919Z,98287.22
2023-03-03T15:34:46.765Z,98294.03
2023-03-03T15:37:39.877Z,98289.78
2023-03-03T15:40:22.883Z,98287.22
2023-03-03T15:42:59.137Z,98303.34
2023-03-03T15:45:34.359Z,98292.31
2023-03-03T15:48:21.124Z,98290.59
2023-03-03T15:51:01.226Z,98300.81
2023-03-03T15:54:09.106Z,98293.16
2023-03-03T15:56:47.545Z,98290.59
2023-03-03T15:59:55.701Z,98262.59
2023-03-03T16:02:47.398Z,98291.50
2023-03-03T16:05:24.511Z,98288.06
2023-03-03T16:08:04.254Z,98296.53
2023-03-03T16:10:49.911Z,98282.94
2023-03-03T16:13:41.337Z,98292.31
2023-03-03T16:16:27.112Z,98288.91
2023-03-03T16:19:09.153Z,98281.25
2023-03-03T16:22:16.190Z,98288.06
2023-03-03T16:25:02.914Z,98292.31
2023-03-03T16:30:29.362Z,98228.53
2023-03-03T16:33:11.165Z,98291.44
2023-03-03T16:35:45.367Z,98302.44
2023-03-03T16:38:19.541Z,98289.72
2023-03-03T16:40:57.277Z,98276.13
2023-03-03T16:43:43.234Z,98285.50
2023-03-03T16:46:27.536Z,98287.22
2023-03-03T16:49:10.427Z,98252.34
2023-03-03T16:51:48.431Z,98277.88
2023-03-03T16:54:23.381Z,98281.25
2023-03-03T16:57:04.271Z,98284.63
2023-03-03T17:02:53.539Z,98282.13
2023-03-03T17:05:38.578Z,98284.63
2023-03-03T17:08:25.054Z,98271.06
2023-03-03T17:11:03.022Z,98271.88
2023-03-03T17:14:03.385Z,98274.44
2023-03-03T17:16:52.668Z,98249.78
2023-03-03T17:19:33.034Z,98266.78
2023-03-03T17:22:15.210Z,98278.69
2023-03-03T17:24:54.270Z,98269.31
2023-03-03T17:27:41.405Z,98279.53
2023-03-03T17:30:21.821Z,98288.00
2023-03-03T17:33:20.648Z,98283.78
2023-03-03T17:36:12.991Z,98289.72
2023-03-03T17:38:55.989Z,98282.91
2023-03-03T17:41:32.958Z,98272.66
2023-03-03T17:44:09.413Z,98280.31
2023-03-03T17:46:46.512Z,98283.69
2023-03-03T17:49:38.273Z,98257.34
2023-03-03T17:52:33.535Z,98280.31
2023-03-03T17:55:17.907Z,98287.06
2023-03-03T17:58:05.879Z,98287.06
2023-03-03T18:00:47.223Z,98288.75
2023-03-03T18:03:45.064Z,98281.97
2023-03-03T18:06:40.687Z,98283.69
2023-03-03T18:09:22.042Z,98284.53
2023-03-03T18:12:05.100Z,98285.38
2023-03-03T18:14:57.715Z,98280.25
2023-03-03T18:17:39.716Z,98275.97
2023-03-03T18:20:24.584Z,98284.50
2023-03-03T18:22:54.466Z,98274.22
2023-03-03T18:25:25.335Z,98286.13
2023-03-03T18:28:24.515Z,98282.75
2023-03-03T18:30:58.461Z,98279.31
2023-03-03T18:33:45.946Z,98283.56
2023-03-03T18:36:38.089Z,98280.16
2023-03-03T18:39:08.516Z,98280.97
2023-03-03T18:42:10.884Z,98284.34
2023-03-03T18:44:40.459Z,98283.47
2023-03-03T18:47:09.674Z,98279.22
2023-03-03T18:49:59.042Z,98273.28
2023-03-03T18:52:32.361Z,98266.44
2023-03-03T18:55:21.455Z,98281.75
2023-03-03T18:58:34.176Z,98283.44
2023-03-03T19:01:15.024Z,98269.84
2023-03-03T19:04:05.120Z,98282.59
2023-03-03T19:06:58.649Z,98284.25
2023-03-03T19:09:56.860Z,98287.66
2023-03-03T19:12:46.272Z,98275.75
2023-03-03T19:15:45.299Z,98279.09
2023-03-03T19:18:21.417Z,98284.13
2023-03-03T19:20:57.290Z,98278.94
2023-03-03T19:23:51.045Z,98260.94
2023-03-03T19:26:57.480Z,98280.47
2023-03-03T19:29:55.264Z,98277.88
2023-03-03T19:32:50.024Z,98290.56
2023-03-03T19:35:29.034Z,98283.75
2023-03-03T19:38:09.653Z,98289.63
2023-03-03T19:40:45.276Z,98261.50
2023-03-03T19:43:32.259Z,98291.19
2023-03-03T19:46:33.521Z,98294.47
2023-03-03T19:49:14.459Z,98282.44
2023-03-03T19:51:57.072Z,98256.78
2023-03-03T19:54:51.717Z,98279.72
2023-03-03T19:57:36.769Z,98261.91
2023-03-03T20:00:11.141Z,98279.69
2023-03-03T20:02:53.541Z,98278.78
2023-03-03T20:05:29.775Z,98274.44
2023-03-03T20:08:03.972Z,98281.16
2023-03-03T20:10:45.348Z,98269.22
2023-03-03T20:13:28.216Z,98252.16
2023-03-03T20:16:11.417Z,98270.81
2023-03-03T20:18:58.488Z,98267.38
2023-03-03T20:21:37.198Z,98258.84
2023-03-03T20:24:31.861Z,98254.56
2023-03-03T20:27:06.113Z,98254.53
2023-03-03T20:30:00.713Z,98240.03
2023-03-03T20:32:47.247Z,98218.66
2023-03-03T20:35:27.361Z,98246.94
2023-03-03T20:38:05.370Z,98206.94
2023-03-03T20:43:28.556Z,98218.94
2023-03-03T20:46:07.435Z,98248.94
2023-03-03T20:48:54.002Z,98245.66
2023-03-03T20:51:36.998Z,98231.31
2023-03-03T20:54:14.539Z,98245.03
2023-03-03T20:56:49.735Z,98222.09
2023-03-03T20:59:31.621Z,98240.06
2023-03-03T21:02:15.106Z,98236.75
2023-03-03T21:04:46.338Z,98232.53
2023-03-03T21:07:32.177Z,98230.03
2023-03-03T21:10:13.520Z,98239.38
2023-03-03T21:12:52.823Z,98216.50
2023-03-03T21:15:29.012Z,98179.13
2023-03-03T21:18:28.439Z,98184.31
2023-03-03T21:20:59.856Z,98227.66
2023-03-03T21:23:34.096Z,98215.78
2023-03-03T21:26:03.214Z,98222.63
2023-03-03T21:28:34.303Z,98215.00
2023-03-03T21:31:09.161Z,98215.88
2023-03-03T21:33:58.979Z,98217.59
2023-03-03T21:36:49.248Z,98218.50
2023-03-03T21:39:28.054Z,98216.78
2023-03-03T21:42:01.984Z,98209.16
2023-03-03T21:44:35.986Z,98210.91
2023-03-03T21:47:06.346Z,98210.91
2023-03-03T21:49:43.728Z,98212.59
2023-03-03T21:52:16.485Z,98211.72
2023-03-03T21:54:52.501Z,98194.72
2023-03-03T21:57:21.821Z,98191.34
2023-03-03T21:59:50.861Z,98197.31
2023-03-03T22:02:25.453Z,98197.31
2023-03-03T22:04:54.606Z,98199.00
2023-03-03T22:07:25.769Z,98179.44
2023-03-03T22:09:55.088Z,98198.19
2023-03-03T22:12:24.180Z,98199.00
2023-03-03T22:14:53.718Z,98193.88
2023-03-03T22:17:25.124Z,98190.44
2023-03-03T22:20:01.124Z,98197.25
2023-03-03T22:22:32.737Z,98192.16
2023-03-03T22:25:07.890Z,98184.56
2023-03-03T22:27:37.291Z,98184.50
2023-03-03T22:30:07.667Z,98197.19
2023-03-03T22:32:36.877Z,98184.47
2023-03-03T22:35:06.916Z,98175.13
2023-03-03T22:37:38.096Z,98188.72
2023-03-03T22:40:13.934Z,98188.69
2023-03-03T22:42:43.158Z,98181.91
2023-03-03T22:45:13.935Z,98185.28
2023-03-03T22:47:42.971Z,98186.97
2023-03-03T22:50:13.564Z,98192.88
2023-03-03T22:52:44.591Z,98182.69
2023-03-03T22:55:14.325Z,98190.34
2023-03-03T22:57:43.751Z,98192.03
2023-03-03T23:00:14.943Z,98186.97
2023-03-03T23:02:44.275Z,98186.94
2023-03-03T23:05:13.366Z,98177.56
2023-03-03T23:07:44.663Z,98180.09
2023-03-03T23:10:13.906Z,98161.31
2023-03-03T23:12:43.003Z,98180.03
2023-03-03T23:15:15.273Z,98162.13
2023-03-03T23:17:45.839Z,98174.88
2023-03-03T23:20:22.402Z,98164.72
2023-03-03T23:22:54.241Z,98163.94
2023-03-03T23:25:24.761Z,98166.47
2023-03-03T23:27:54.513Z,98135.88
2023-03-03T23:30:24.472Z,98150.41
2023-03-03T23:32:54.222Z,98150.44
2023-03-03T23:35:24.156Z,98150.41
2023-03-03T23:37:55.225Z,98147.03
2023-03-03T23:40:24.451Z,98125.81
2023-03-03T23:42:53.494Z,98141.06
2023-03-03T23:45:23.093Z,98143.56
2023-03-03T23:47:52.187Z,98129.13
2023-03-03T23:50:26.411Z,98128.22
2023-03-03T23:52:57.428Z,98136.81
2023-03-03T23:55:26.666Z,98101.09
2023-03-03T23:57:55.944Z,98131.72
